Página principal
METAR-TAF:

METAR-TAF

Aeroportos :

Qazvin, Irão

latitude: 36-15N, longitude: 050-00E, altura: 1278 m

Observação actual do tempo

O boletim foi feito há 1 hora e 22 minutos, às 23:00 UTC
Vento 2 kt de nordeste
Temperatura 9°C
Humidade 76%
Pressão 1023 hPa
Visibilidade 10 km ou mais
sem nuvens abaixo de 1500 metros e sem cumulonimbus

METAR: OIIK 172300Z 04002KT CAVOK 09/05 Q1023

Hora: 03:52 (00:22 UTC)


TAF: em falta

Observações e previsões do tempo de mais de 4000 aeroportos (mensagens METAR e TAF).

As estações disponíveis são os pontos amarelos e vermelhos sobre o mapa.

Mova o rato sobre o mapa para ver o nome da estação.

Depois clique no ponto para visualizar as observações e previsões meteorológicas.

Para alterar o mapa : clique nos botões verdes com uma cruz preta para aumentar o zoom; no botão verde com uma pitada de zoom; ou nas setas verdes para mapas adjacentes.


METAR-TAF: